METAR Formatted Surface Weather Observation
Issued by NWS

Home | Current Version | Previous Version | Text Only | Print | Product List | Glossary On
Versions: 1
000
SAUS41 KRLX 270558 COR
MTRCKB
METAR KCKB 270553Z 26006KT 10SM SCT048 BKN060 22/17 A3013 RMK AO2
SLP186 T02220172 10250 20211 53009



USA.gov is the U.S. government's official web portal to all federal, state and local government web resources and services.